Lanark, Illinois
Current Conditions -  °F | °C
As of 6:35 AM on Monday 20 Oct 2014 (Local Time) from KSFY Reporting Station
Clear Clear  
Wind Chill:   Ceiling: Unl
Heat Index:   Visibility: 10mi
Dew Point:   Wind: 6mph
Humidity: 85%   Direction: 300°WNW
Pressure: 29.86"   Gusts: NA
Location:  42.1°N, 89.83°W
Report Text: KSFY 201135Z AUTO 30005KT 10SM CLR 09/06 A2986 RMK AO2 T00870063
Loading
Personal Weather Stations






























Interactive Weather Map
Tropical Storm Tracking
New forecast layout! Learn more

10-Day Weather Forecast

Advertisements
Track Severe Weather on mobile